Time;durP1;ratioP1;P1;durP2;ratioP2;P2;SDS_P1;SDS_P2;PMS_P1;PMS_P2;Temp;Humidity;BMP_temperature;BMP_pressure;BME280_temperature;BME280_humidity;BME280_pressure;Samples;Min_cycle;Max_cycle;Signal;HPM_P1;HPM_P2
2022/05/25 00:02:26;;;;;;;2.90;0.90;;;17.70;99.90;;;;;;5083504;28;20718;-88
2022/05/25 00:04:54;;;;;;;3.20;1.00;;;17.60;99.90;;;;;;5082247;28;20668;-89
2022/05/25 00:07:21;;;;;;;7.43;2.03;;;17.50;99.90;;;;;;5078983;28;20634;-88
2022/05/25 00:09:49;;;;;;;1.73;0.90;;;17.50;99.90;;;;;;5085055;28;20702;-88
2022/05/25 00:12:17;;;;;;;2.67;1.20;;;17.50;99.90;;;;;;5088739;28;21181;-89
2022/05/25 00:14:45;;;;;;;1.00;0.90;;;17.50;99.90;;;;;;5085856;28;20620;-88
2022/05/25 00:17:12;;;;;;;2.20;1.00;;;17.40;99.90;;;;;;5091794;28;21002;-88
2022/05/25 00:22:23;;;;;;;1.93;1.60;;;17.50;99.90;;;;;;5087911;28;20615;-88
2022/05/25 00:24:50;;;;;;;1.57;0.90;;;17.40;99.90;;;;;;5081335;28;20672;-88
2022/05/25 00:27:18;;;;;;;2.37;1.30;;;17.40;99.90;;;;;;5086128;28;20726;-89
2022/05/25 00:29:46;;;;;;;2.40;0.90;;;17.30;99.90;;;;;;5083738;28;20635;-88
2022/05/25 00:32:13;;;;;;;2.60;0.90;;;17.30;99.90;;;;;;5083127;28;20979;-88
2022/05/25 00:34:40;;;;;;;1.30;1.00;;;17.30;99.90;;;;;;5087649;28;20620;-87
2022/05/25 00:37:07;;;;;;;1.20;1.00;;;17.30;99.90;;;;;;5095842;28;20635;-88
2022/05/25 00:39:33;;;;;;;1.73;1.30;;;17.30;99.90;;;;;;5093622;28;20651;-88
2022/05/25 00:42:03;;;;;;;1.77;0.80;;;17.30;99.90;;;;;;5093391;28;20620;-89
2022/05/25 00:44:31;;;;;;;1.33;1.10;;;17.30;99.90;;;;;;5087321;28;20660;-89
2022/05/25 00:47:00;;;;;;;2.87;1.07;;;17.30;99.90;;;;;;5084825;28;20624;-88
2022/05/25 00:49:29;;;;;;;2.33;1.47;;;17.30;99.90;;;;;;5082052;28;20620;-88
2022/05/25 00:52:04;;;;;;;1.40;1.17;;;17.30;99.90;;;;;;5087845;28;20678;-88
2022/05/25 00:54:33;;;;;;;2.97;0.93;;;17.20;99.90;;;;;;5083372;28;21313;-88
2022/05/25 00:57:06;;;;;;;1.50;1.17;;;17.20;99.90;;;;;;5085934;28;21078;-88
2022/05/25 00:59:36;;;;;;;3.40;1.47;;;17.10;99.90;;;;;;5083011;28;21021;-88
2022/05/25 01:02:05;;;;;;;2.20;1.23;;;17.20;99.90;;;;;;5086144;28;20620;-88
2022/05/25 01:04:32;;;;;;;0.80;0.70;;;17.20;99.90;;;;;;5085425;28;20664;-88
2022/05/25 01:07:17;;;;;;;0.97;0.90;;;17.30;99.90;;;;;;5087045;28;21165;-88
2022/05/25 01:09:56;;;;;;;1.97;0.90;;;17.30;99.90;;;;;;5088166;28;21234;-88
2022/05/25 01:12:41;;;;;;;0.70;0.70;;;17.30;99.90;;;;;;5085349;28;20634;-89
2022/05/25 01:15:15;;;;;;;2.73;1.37;;;17.40;99.90;;;;;;5089869;28;20628;-88
2022/05/25 01:17:58;;;;;;;4.00;1.53;;;17.30;99.90;;;;;;5086726;28;21310;-88
2022/05/25 01:20:30;;;;;;;1.10;1.10;;;17.30;99.90;;;;;;5087039;28;20655;-88
2022/05/25 01:23:48;;;;;;;1.40;1.30;;;17.30;99.90;;;;;;5085112;28;21174;-88
2022/05/25 01:26:37;;;;;;;1.13;0.90;;;17.30;99.90;;;;;;5088192;28;21146;-89
2022/05/25 01:29:11;;;;;;;0.97;0.77;;;17.30;99.90;;;;;;5082877;28;20625;-88
2022/05/25 01:31:46;;;;;;;1.63;1.30;;;17.20;99.90;;;;;;5087318;28;20585;-88
2022/05/25 01:34:21;;;;;;;0.97;0.87;;;17.20;99.90;;;;;;5086433;28;20627;-88
2022/05/25 01:36:56;;;;;;;2.37;1.10;;;17.20;99.90;;;;;;5086042;28;20843;-88
2022/05/25 01:39:28;;;;;;;1.20;0.93;;;17.20;99.90;;;;;;5087401;28;20973;-88
2022/05/25 01:41:59;;;;;;;0.97;0.67;;;17.20;99.90;;;;;;5085948;28;20608;-88
2022/05/25 01:44:31;;;;;;;1.20;0.67;;;17.30;99.90;;;;;;5083714;28;20683;-88
2022/05/25 01:47:06;;;;;;;2.70;1.20;;;17.30;99.90;;;;;;5087846;28;20619;-88
2022/05/25 01:49:40;;;;;;;2.87;0.70;;;17.30;99.90;;;;;;5088143;28;21006;-88
2022/05/25 01:52:10;;;;;;;2.03;1.10;;;17.40;99.90;;;;;;5085381;28;20843;-88
2022/05/25 01:54:50;;;;;;;1.60;0.80;;;17.30;99.90;;;;;;5088401;28;21170;-89
2022/05/25 01:57:19;;;;;;;2.37;1.00;;;17.30;99.90;;;;;;5084731;28;20609;-88
2022/05/25 01:59:46;;;;;;;0.70;0.70;;;17.20;99.90;;;;;;5084000;28;20655;-88
2022/05/25 02:05:03;;;;;;;0.80;0.67;;;17.30;99.90;;;;;;5089726;28;21328;-89
2022/05/25 02:07:43;;;;;;;1.57;1.20;;;17.20;99.90;;;;;;5089331;28;20615;-88
2022/05/25 02:10:22;;;;;;;1.33;0.80;;;17.20;99.90;;;;;;5087059;28;20659;-88
2022/05/25 02:13:03;;;;;;;1.30;0.70;;;17.20;99.90;;;;;;5084769;28;20631;-88
2022/05/25 02:15:39;;;;;;;3.03;0.83;;;17.20;99.90;;;;;;5088105;28;20608;-88
2022/05/25 02:18:11;;;;;;;1.73;0.83;;;17.10;99.90;;;;;;5084667;28;20584;-88
2022/05/25 02:20:46;;;;;;;1.67;1.10;;;17.10;99.90;;;;;;5086210;28;21021;-88
2022/05/25 02:23:19;;;;;;;1.03;0.60;;;17.10;99.90;;;;;;5087319;28;20631;-88
2022/05/25 02:25:51;;;;;;;3.03;1.33;;;17.00;99.90;;;;;;5090726;28;20670;-89
2022/05/25 02:28:24;;;;;;;1.10;1.03;;;17.10;99.90;;;;;;5092938;28;20628;-89
2022/05/25 02:30:55;;;;;;;1.80;0.90;;;16.90;99.90;;;;;;5091441;28;20628;-89
2022/05/25 02:33:28;;;;;;;2.13;0.90;;;17.00;99.90;;;;;;5089730;28;20635;-88
2022/05/25 02:35:57;;;;;;;1.20;1.10;;;16.90;99.90;;;;;;5088317;28;20689;-88
2022/05/25 02:38:24;;;;;;;0.87;0.67;;;16.90;99.90;;;;;;5088702;28;20986;-88
2022/05/25 02:40:51;;;;;;;1.00;0.90;;;16.90;99.90;;;;;;5086919;28;20648;-89
2022/05/25 02:43:17;;;;;;;1.07;0.87;;;17.00;99.90;;;;;;5087789;28;20623;-88
2022/05/25 02:45:46;;;;;;;1.90;0.93;;;17.00;99.90;;;;;;5088113;28;20667;-88
2022/05/25 02:48:12;;;;;;;0.93;0.60;;;17.00;99.90;;;;;;5086274;28;20627;-88
2022/05/25 02:50:41;;;;;;;0.70;0.63;;;16.90;99.90;;;;;;5086791;28;21228;-89
2022/05/25 02:53:11;;;;;;;0.50;0.50;;;17.00;99.90;;;;;;5088857;28;20639;-88
2022/05/25 02:55:38;;;;;;;2.50;1.43;;;17.00;99.90;;;;;;5088030;28;20631;-88
2022/05/25 02:58:06;;;;;;;0.97;0.80;;;17.00;99.90;;;;;;5084257;28;20632;-89
2022/05/25 03:00:32;;;;;;;6.00;0.70;;;16.90;99.90;;;;;;5086707;28;20643;-88
2022/05/25 03:02:59;;;;;;;0.50;0.40;;;16.90;99.90;;;;;;5087701;28;20632;-88
2022/05/25 03:05:26;;;;;;;1.63;0.70;;;16.80;99.90;;;;;;5088043;28;20671;-88
2022/05/25 03:07:54;;;;;;;1.07;0.70;;;16.80;99.90;;;;;;5087533;28;20643;-88
2022/05/25 03:10:21;;;;;;;0.80;0.80;;;16.80;99.90;;;;;;5086480;28;20658;-88
2022/05/25 03:12:48;;;;;;;0.77;0.77;;;16.80;99.90;;;;;;5079424;28;20612;-88
2022/05/25 03:15:20;;;;;;;3.20;0.80;;;16.80;99.90;;;;;;5088905;28;20624;-88
2022/05/25 03:17:47;;;;;;;1.17;0.50;;;16.80;99.90;;;;;;5084908;28;20644;-88
2022/05/25 03:20:14;;;;;;;0.70;0.57;;;16.80;99.90;;;;;;5086884;28;20648;-88
2022/05/25 03:22:44;;;;;;;0.83;0.70;;;16.80;99.90;;;;;;5084456;28;21105;-88
2022/05/25 03:25:13;;;;;;;1.87;0.87;;;16.80;99.90;;;;;;5087748;28;20652;-88
2022/05/25 03:27:40;;;;;;;1.37;1.07;;;16.80;99.90;;;;;;5086422;28;20712;-88
2022/05/25 03:30:09;;;;;;;2.20;0.93;;;16.90;99.90;;;;;;5083839;28;20648;-87
2022/05/25 03:32:36;;;;;;;0.83;0.60;;;16.90;99.90;;;;;;5083897;28;20627;-88
2022/05/25 03:35:06;;;;;;;1.73;0.80;;;16.80;99.90;;;;;;5086554;28;20638;-87
2022/05/25 03:37:33;;;;;;;1.17;0.90;;;16.90;99.90;;;;;;5083479;28;20613;-87
2022/05/25 03:40:00;;;;;;;1.03;0.63;;;16.90;99.90;;;;;;5081067;28;20651;-88
2022/05/25 03:42:28;;;;;;;0.63;0.63;;;16.80;99.90;;;;;;5086267;28;20628;-88
2022/05/25 03:44:55;;;;;;;4.10;0.73;;;16.90;99.90;;;;;;5081986;28;20659;-87
2022/05/25 03:47:22;;;;;;;1.00;0.70;;;16.90;99.90;;;;;;5086481;28;20635;-87
2022/05/25 03:49:48;;;;;;;0.80;0.70;;;16.90;99.90;;;;;;5087236;28;21254;-88
2022/05/25 03:52:20;;;;;;;1.50;0.70;;;16.90;99.90;;;;;;5084530;28;21250;-87
2022/05/25 03:54:47;;;;;;;1.67;0.90;;;16.90;99.90;;;;;;5087200;28;20663;-87
2022/05/25 03:57:14;;;;;;;1.13;1.00;;;16.80;99.90;;;;;;5084903;28;20978;-88
2022/05/25 03:59:42;;;;;;;1.33;1.10;;;16.60;99.90;;;;;;5083195;28;20655;-89
2022/05/25 04:02:09;;;;;;;1.10;0.80;;;16.60;99.90;;;;;;5085382;28;20625;-87
2022/05/25 04:04:37;;;;;;;2.73;1.10;;;16.60;99.90;;;;;;5085690;28;20680;-87
2022/05/25 04:07:04;;;;;;;2.60;1.77;;;16.60;99.90;;;;;;5082225;28;20629;-86
2022/05/25 04:09:31;;;;;;;1.47;1.13;;;16.60;99.90;;;;;;5086614;28;20662;-87
2022/05/25 04:11:58;;;;;;;1.10;0.83;;;16.70;99.90;;;;;;5087372;28;20660;-87
2022/05/25 04:14:26;;;;;;;1.50;1.20;;;16.70;99.90;;;;;;5085289;28;20635;-86
2022/05/25 04:16:55;;;;;;;0.90;0.90;;;16.70;99.90;;;;;;5083002;28;20616;-87
2022/05/25 04:19:21;;;;;;;3.00;0.93;;;16.80;99.90;;;;;;5085253;28;20634;-87
2022/05/25 04:21:48;;;;;;;1.03;0.70;;;16.80;99.90;;;;;;5085402;28;20611;-87
2022/05/25 04:24:16;;;;;;;4.37;1.20;;;16.70;99.90;;;;;;5084602;28;20620;-87
2022/05/25 04:26:43;;;;;;;2.40;1.93;;;16.70;99.90;;;;;;5085575;28;20725;-87
2022/05/25 04:29:10;;;;;;;1.20;1.10;;;16.70;99.90;;;;;;5085439;28;20631;-89
2022/05/25 04:31:37;;;;;;;1.47;1.00;;;16.70;99.90;;;;;;5086915;28;20981;-89
2022/05/25 04:34:06;;;;;;;1.50;1.00;;;16.70;99.90;;;;;;5081303;28;20856;-88
2022/05/25 04:36:33;;;;;;;1.33;1.10;;;16.70;99.90;;;;;;5084963;28;20666;-88
2022/05/25 04:38:59;;;;;;;1.10;1.00;;;16.60;99.90;;;;;;5081054;28;20627;-87
2022/05/25 04:41:26;;;;;;;0.90;0.80;;;16.70;99.90;;;;;;5082076;28;20653;-87
2022/05/25 04:43:53;;;;;;;1.70;1.60;;;16.60;99.90;;;;;;5086423;28;20620;-88
2022/05/25 04:46:20;;;;;;;1.30;1.20;;;16.60;99.90;;;;;;5081248;28;20663;-88
2022/05/25 04:48:47;;;;;;;3.47;1.10;;;16.60;99.90;;;;;;5083109;28;20628;-88
2022/05/25 04:51:16;;;;;;;2.00;1.37;;;16.60;99.90;;;;;;5084391;28;20666;-88
2022/05/25 04:53:43;;;;;;;1.67;1.57;;;16.70;99.90;;;;;;5081462;28;20637;-88
2022/05/25 04:58:54;;;;;;;2.10;1.50;;;16.70;99.90;;;;;;5083945;28;20678;-88
2022/05/25 05:01:22;;;;;;;2.37;1.30;;;16.70;99.90;;;;;;5082773;28;21253;-87
2022/05/25 05:03:49;;;;;;;1.27;1.17;;;16.70;99.90;;;;;;5087610;28;21189;-87
2022/05/25 05:06:19;;;;;;;2.17;1.40;;;16.70;99.90;;;;;;5085232;28;20772;-87
2022/05/25 05:08:45;;;;;;;3.23;1.60;;;16.70;99.90;;;;;;5085995;28;20620;-87
2022/05/25 05:11:18;;;;;;;2.03;1.27;;;16.70;99.90;;;;;;5086136;28;20735;-87
2022/05/25 05:13:45;;;;;;;2.70;1.20;;;16.70;99.90;;;;;;5085978;28;20616;-88
2022/05/25 05:16:15;;;;;;;3.30;1.67;;;16.70;99.90;;;;;;5086041;28;20616;-88
2022/05/25 05:18:42;;;;;;;2.23;1.63;;;16.70;99.90;;;;;;5086603;28;20659;-87
2022/05/25 05:21:09;;;;;;;4.90;2.00;;;16.60;99.90;;;;;;5085058;28;20648;-87
2022/05/25 05:23:38;;;;;;;1.50;1.40;;;16.70;99.90;;;;;;5084110;28;20689;-88
2022/05/25 05:26:05;;;;;;;2.50;1.70;;;16.70;99.90;;;;;;5082072;28;20691;-88
2022/05/25 05:28:34;;;;;;;2.50;1.20;;;16.80;99.90;;;;;;5082975;28;20647;-88
2022/05/25 05:31:02;;;;;;;1.80;1.70;;;16.80;99.90;;;;;;5086257;28;20696;-88
2022/05/25 05:33:30;;;;;;;1.70;1.40;;;16.80;99.90;;;;;;5085712;28;20988;-88
2022/05/25 05:36:04;;;;;;;5.07;1.50;;;16.60;99.90;;;;;;5088230;28;20612;-90
2022/05/25 05:38:32;;;;;;;2.90;1.83;;;16.70;99.90;;;;;;5089578;28;20949;-89
2022/05/25 05:41:01;;;;;;;2.87;1.80;;;16.70;99.90;;;;;;5093624;28;20682;-88
2022/05/25 05:43:28;;;;;;;2.30;1.40;;;16.70;99.90;;;;;;5094653;28;20624;-89
2022/05/25 05:45:55;;;;;;;3.30;1.70;;;16.60;99.90;;;;;;5088925;28;20660;-88
2022/05/25 05:48:25;;;;;;;2.13;1.37;;;16.70;99.90;;;;;;5094505;28;20620;-88
2022/05/25 05:50:55;;;;;;;3.27;1.40;;;16.70;99.90;;;;;;5096525;28;20640;-88
2022/05/25 05:53:23;;;;;;;3.77;1.40;;;16.80;99.90;;;;;;5087971;28;20628;-88
2022/05/25 05:55:50;;;;;;;2.63;2.00;;;16.80;99.90;;;;;;5088837;28;20612;-89
2022/05/25 05:58:19;;;;;;;2.70;1.30;;;16.90;99.90;;;;;;5086504;28;20587;-89
2022/05/25 06:00:46;;;;;;;4.33;1.17;;;16.80;99.90;;;;;;5084615;28;20651;-88
2022/05/25 06:03:13;;;;;;;2.83;2.27;;;16.80;99.90;;;;;;5092252;28;20624;-88
2022/05/25 06:05:40;;;;;;;3.80;2.10;;;16.80;99.90;;;;;;5092909;28;20667;-89
2022/05/25 06:08:09;;;;;;;2.40;1.27;;;16.90;99.90;;;;;;5086738;28;20640;-88
2022/05/25 06:10:36;;;;;;;2.53;2.30;;;16.90;99.90;;;;;;5091782;28;20639;-88
2022/05/25 06:13:03;;;;;;;1.63;1.50;;;16.90;99.90;;;;;;5089116;28;20620;-88
2022/05/25 06:21:01;;;;;;;2.03;1.80;;;17.10;99.90;;;;;;5101069;28;20673;-88
2022/05/25 06:23:27;;;;;;;2.90;1.67;;;17.20;99.90;;;;;;5105536;28;20687;-88
2022/05/25 06:25:54;;;;;;;2.17;1.40;;;17.20;99.90;;;;;;5098920;28;20671;-88
2022/05/25 06:28:21;;;;;;;1.73;1.13;;;17.30;99.90;;;;;;5097238;28;20611;-88
2022/05/25 06:30:49;;;;;;;5.07;1.60;;;17.50;99.90;;;;;;5096274;28;20640;-88
2022/05/25 06:33:16;;;;;;;3.67;1.50;;;17.70;99.90;;;;;;5101800;28;20628;-88
2022/05/25 06:35:43;;;;;;;4.70;1.57;;;18.00;99.90;;;;;;5100465;28;20662;-88
2022/05/25 06:38:10;;;;;;;1.63;1.03;;;18.20;99.90;;;;;;5102728;28;20627;-89
2022/05/25 06:40:40;;;;;;;3.47;1.27;;;18.40;99.90;;;;;;5105067;28;20720;-88
2022/05/25 06:43:07;;;;;;;1.80;1.23;;;18.60;99.90;;;;;;5096531;28;20612;-90
2022/05/25 06:45:33;;;;;;;3.50;1.10;;;18.60;98.20;;;;;;5105764;28;20747;-90
2022/05/25 06:48:07;;;;;;;3.10;1.73;;;18.70;96.50;;;;;;5097940;28;20743;-90
2022/05/25 06:50:34;;;;;;;2.03;1.30;;;18.70;96.00;;;;;;5097376;28;21230;-88
2022/05/25 06:53:01;;;;;;;1.13;0.90;;;18.60;95.80;;;;;;5096931;28;20646;-90
2022/05/25 06:55:28;;;;;;;1.50;1.23;;;18.60;96.50;;;;;;5098416;28;20970;-89
2022/05/25 06:57:58;;;;;;;1.40;1.30;;;18.60;96.80;;;;;;5096550;28;20634;-89
2022/05/25 07:00:25;;;;;;;1.17;1.07;;;18.60;95.70;;;;;;5098329;28;20674;-90
2022/05/25 07:02:52;;;;;;;1.17;1.07;;;18.40;95.40;;;;;;5093381;28;20637;-89
2022/05/25 07:05:21;;;;;;;1.97;1.30;;;18.50;95.90;;;;;;5093913;28;20629;-89
2022/05/25 07:07:49;;;;;;;3.73;1.07;;;18.60;96.60;;;;;;5090439;28;21170;-89
2022/05/25 07:10:15;;;;;;;4.33;1.43;;;18.70;95.90;;;;;;5084702;28;20640;-89
2022/05/25 07:12:42;;;;;;;1.77;1.03;;;18.70;96.20;;;;;;5089159;28;20640;-89
2022/05/25 07:15:10;;;;;;;1.27;1.03;;;18.80;96.70;;;;;;5082961;28;20625;-89
2022/05/25 07:17:37;;;;;;;2.73;1.20;;;18.90;96.20;;;;;;5088078;28;20628;-89
2022/05/25 07:20:06;;;;;;;3.17;0.97;;;18.90;95.80;;;;;;5086596;28;20739;-89
2022/05/25 07:22:34;;;;;;;2.10;1.10;;;19.00;97.80;;;;;;5089592;28;20628;-89
2022/05/25 07:25:03;;;;;;;1.30;0.83;;;19.10;99.60;;;;;;5083412;28;20628;-89
2022/05/25 07:27:30;;;;;;;1.57;0.93;;;19.20;95.20;;;;;;5088102;28;20664;-90
2022/05/25 07:29:57;;;;;;;3.97;1.23;;;19.10;95.00;;;;;;5089118;28;20646;-89
2022/05/25 07:32:24;;;;;;;1.70;0.90;;;18.80;94.40;;;;;;5089364;28;20624;-89
2022/05/25 07:34:58;;;;;;;4.40;0.87;;;18.80;95.10;;;;;;5088888;28;20634;-88
2022/05/25 07:37:27;;;;;;;2.87;1.27;;;18.80;96.50;;;;;;5084488;28;20647;-89
2022/05/25 07:40:01;;;;;;;3.33;1.00;;;19.00;96.00;;;;;;5086555;28;20643;-89
2022/05/25 07:42:31;;;;;;;4.43;1.20;;;19.00;96.40;;;;;;5082903;28;20662;-89
2022/05/25 07:45:00;;;;;;;1.77;1.00;;;19.10;95.30;;;;;;5090029;28;20628;-89
2022/05/25 07:47:33;;;;;;;3.40;0.83;;;19.20;99.00;;;;;;5083943;28;20767;-89
2022/05/25 07:50:01;;;;;;;4.67;0.87;;;19.30;98.10;;;;;;5081406;28;21203;-89
2022/05/25 07:52:31;;;;;;;1.93;1.00;;;19.60;99.80;;;;;;5087792;28;20652;-89
2022/05/25 07:55:00;;;;;;;0.90;0.60;;;19.70;96.30;;;;;;5083748;28;20632;-89
2022/05/25 07:57:27;;;;;;;0.70;0.70;;;19.70;98.70;;;;;;5081244;28;20621;-89
2022/05/25 07:59:54;;;;;;;1.53;0.73;;;19.90;99.90;;;;;;5087435;28;21012;-89
2022/05/25 08:07:58;;;;;;;1.27;1.00;;;20.50;98.90;;;;;;5082481;28;20671;-89
2022/05/25 08:10:27;;;;;;;4.00;1.10;;;20.60;94.70;;;;;;5088705;28;21284;-88
2022/05/25 08:12:56;;;;;;;0.83;0.50;;;20.60;92.90;;;;;;5085196;28;20616;-90
2022/05/25 08:15:24;;;;;;;1.20;0.83;;;20.50;96.10;;;;;;5089283;28;20640;-90
2022/05/25 08:17:54;;;;;;;0.90;0.90;;;20.60;94.50;;;;;;5083357;28;20612;-90
2022/05/25 08:20:22;;;;;;;1.77;0.70;;;20.80;93.20;;;;;;5089882;28;20648;-90
2022/05/25 08:22:49;;;;;;;0.90;0.80;;;20.80;91.40;;;;;;5086000;28;20616;-91
2022/05/25 08:25:18;;;;;;;0.80;0.60;;;21.10;95.80;;;;;;5085362;28;20615;-89
2022/05/25 08:27:46;;;;;;;1.47;1.10;;;21.40;96.70;;;;;;5086757;28;20715;-90
2022/05/25 08:30:16;;;;;;;0.87;0.60;;;21.50;93.00;;;;;;5082904;28;20739;-91
2022/05/25 08:32:43;;;;;;;1.93;0.83;;;21.50;94.10;;;;;;5084050;28;20628;-90
2022/05/25 08:35:10;;;;;;;4.17;1.23;;;21.60;93.00;;;;;;5083316;28;20653;-90
2022/05/25 08:37:42;;;;;;;3.30;0.90;;;21.40;89.20;;;;;;5087606;28;20781;-90
2022/05/25 08:40:11;;;;;;;2.60;1.13;;;21.30;90.80;;;;;;5096551;28;20647;-90
2022/05/25 08:42:48;;;;;;;1.27;1.00;;;21.20;87.60;;;;;;5087178;28;20636;-89
2022/05/25 08:45:18;;;;;;;4.10;1.83;;;20.90;87.70;;;;;;5090471;28;20627;-90
2022/05/25 08:47:49;;;;;;;1.50;1.00;;;20.90;89.70;;;;;;5089864;28;20648;-90
2022/05/25 08:50:16;;;;;;;2.87;1.20;;;21.00;88.70;;;;;;5087709;28;20652;-90
2022/05/25 08:52:46;;;;;;;3.20;0.80;;;20.80;87.50;;;;;;5087346;28;21206;-89
2022/05/25 08:55:24;;;;;;;2.60;1.40;;;20.70;87.70;;;;;;5085205;28;20644;-90
2022/05/25 08:57:57;;;;;;;2.13;0.90;;;20.60;88.70;;;;;;5084730;28;21127;-90
2022/05/25 09:00:36;;;;;;;0.73;0.73;;;20.80;90.20;;;;;;5082063;28;20653;-90
2022/05/25 09:03:12;;;;;;;2.83;0.93;;;21.00;89.70;;;;;;5089826;28;20650;-90
2022/05/25 09:05:44;;;;;;;1.07;0.70;;;21.20;92.10;;;;;;5088931;28;20615;-91
2022/05/25 09:08:20;;;;;;;1.23;0.97;;;21.40;90.60;;;;;;5088198;28;20695;-90
2022/05/25 09:10:55;;;;;;;0.80;0.70;;;21.50;86.00;;;;;;5090585;28;21016;-91
2022/05/25 09:13:32;;;;;;;2.77;1.20;;;21.60;89.50;;;;;;5089792;28;20653;-91
2022/05/25 09:16:19;;;;;;;2.20;1.00;;;21.50;86.30;;;;;;5084395;28;20617;-90
2022/05/25 09:19:00;;;;;;;3.77;0.80;;;21.70;90.80;;;;;;5090513;28;20624;-90
2022/05/25 09:21:34;;;;;;;2.33;0.63;;;21.70;85.20;;;;;;5091979;28;20659;-90
2022/05/25 09:24:09;;;;;;;2.20;1.17;;;21.60;83.80;;;;;;5092112;28;20624;-90
2022/05/25 09:26:38;;;;;;;1.60;0.60;;;21.50;83.50;;;;;;5093732;28;20647;-91
2022/05/25 09:29:12;;;;;;;3.00;0.80;;;21.50;90.50;;;;;;5093986;28;20620;-90
2022/05/25 09:31:46;;;;;;;1.10;0.70;;;21.70;90.70;;;;;;5099195;28;20654;-91
2022/05/25 09:34:20;;;;;;;1.33;1.00;;;21.90;90.40;;;;;;5094022;28;20881;-90
2022/05/25 09:36:50;;;;;;;1.13;0.70;;;22.10;89.60;;;;;;5093874;28;20615;-90
2022/05/25 09:39:24;;;;;;;1.90;1.30;;;22.20;90.90;;;;;;5095634;28;20667;-90
2022/05/25 09:45:14;;;;;;;2.13;1.40;;;22.30;86.20;;;;;;5074107;28;20617;-90
2022/05/25 09:47:47;;;;;;;2.80;1.07;;;22.20;84.10;;;;;;5094007;28;21019;-90
2022/05/25 09:50:18;;;;;;;2.57;0.80;;;22.00;82.90;;;;;;5091166;28;20705;-90
2022/05/25 09:52:55;;;;;;;0.80;0.80;;;21.90;88.10;;;;;;5093826;28;20673;-90
2022/05/25 09:55:25;;;;;;;3.20;0.90;;;21.80;90.10;;;;;;5094754;28;20793;-90
2022/05/25 09:57:58;;;;;;;0.80;0.60;;;21.80;90.00;;;;;;5091847;28;20727;-90
2022/05/25 10:00:48;;;;;;;2.17;0.90;;;21.80;87.10;;;;;;5091334;28;20660;-90
2022/05/25 10:03:38;;;;;;;1.30;0.90;;;21.80;87.40;;;;;;5086011;28;20640;-90
2022/05/25 10:06:20;;;;;;;0.90;0.90;;;22.00;91.50;;;;;;5093189;28;20704;-90
2022/05/25 10:08:52;;;;;;;2.23;0.70;;;22.10;90.10;;;;;;5079559;28;20986;-90
2022/05/25 10:11:33;;;;;;;3.47;0.67;;;22.10;88.00;;;;;;5089595;28;21019;-90
2022/05/25 10:14:20;;;;;;;1.10;0.40;;;22.20;90.40;;;;;;5086874;28;20613;-90
2022/05/25 10:16:47;;;;;;;2.13;0.97;;;22.30;92.30;;;;;;5083284;28;20615;-90
2022/05/25 10:19:20;;;;;;;1.07;0.77;;;22.30;87.20;;;;;;5088799;28;20655;-90
2022/05/25 10:21:50;;;;;;;4.20;0.77;;;22.40;86.90;;;;;;5086872;28;21092;-90
2022/05/25 10:24:24;;;;;;;0.83;0.53;;;22.50;91.30;;;;;;5089070;28;20605;-91
2022/05/25 10:26:54;;;;;;;1.67;0.80;;;22.60;92.70;;;;;;5087208;28;21010;-90
2022/05/25 10:38:10;;;;;;;1.73;0.87;;;23.00;84.80;;;;;;5089829;28;20762;-90
2022/05/25 10:40:37;;;;;;;1.53;0.50;;;23.00;80.50;;;;;;5090250;28;20648;-91
2022/05/25 10:43:03;;;;;;;2.27;0.90;;;23.20;89.50;;;;;;5089533;28;20577;-90
2022/05/25 10:45:38;;;;;;;1.53;0.97;;;23.40;84.40;;;;;;5088293;28;20638;-91
2022/05/25 10:48:13;;;;;;;3.40;0.90;;;23.40;76.90;;;;;;5087571;28;20663;-91
2022/05/25 10:50:49;;;;;;;1.00;0.90;;;23.50;86.60;;;;;;5091103;28;20718;-90
2022/05/25 10:53:27;;;;;;;2.90;1.73;;;23.60;84.20;;;;;;5089681;28;20628;-90
2022/05/25 10:56:03;;;;;;;2.80;0.83;;;23.50;78.60;;;;;;5083036;28;20619;-91
2022/05/25 10:58:41;;;;;;;0.60;0.57;;;23.40;78.50;;;;;;5087717;28;21051;-90
2022/05/25 11:01:26;;;;;;;3.13;0.70;;;23.60;86.00;;;;;;5082876;28;20723;-90
2022/05/25 11:04:05;;;;;;;1.83;1.73;;;24.10;83.20;;;;;;5087535;28;20992;-90
2022/05/25 11:07:05;;;;;;;1.43;0.70;;;23.90;74.70;;;;;;5087954;28;20612;-90
2022/05/25 11:09:48;;;;;;;1.30;1.20;;;23.90;75.00;;;;;;5071716;28;20717;-90
2022/05/25 11:12:25;;;;;;;1.93;0.70;;;23.70;74.90;;;;;;5088752;28;20628;-90
2022/05/25 11:15:03;;;;;;;2.83;0.67;;;23.90;84.00;;;;;;5084903;28;20629;-90
2022/05/25 11:17:45;;;;;;;1.50;0.73;;;23.70;73.10;;;;;;5088353;28;20665;-90
2022/05/25 11:20:24;;;;;;;1.43;0.87;;;23.60;73.10;;;;;;5087463;28;20655;-90
2022/05/25 11:23:17;;;;;;;1.60;0.90;;;23.50;73.90;;;;;;5085331;28;20632;-90
2022/05/25 11:25:59;;;;;;;1.83;0.60;;;23.50;74.60;;;;;;5087880;28;20939;-90
2022/05/25 11:28:41;;;;;;;1.13;0.67;;;23.50;77.10;;;;;;5085446;28;21076;-90
2022/05/25 11:31:20;;;;;;;2.80;0.50;;;23.70;76.10;;;;;;5088273;28;21161;-91
2022/05/25 11:33:59;;;;;;;1.80;0.80;;;23.90;83.80;;;;;;5088134;28;20624;-90
2022/05/25 11:36:41;;;;;;;2.37;1.20;;;23.90;74.50;;;;;;5099644;28;20647;-90
2022/05/25 11:39:22;;;;;;;3.33;0.77;;;24.00;83.90;;;;;;5081800;28;20627;-90
2022/05/25 11:41:58;;;;;;;1.50;0.70;;;24.40;81.30;;;;;;5081927;28;20714;-90
2022/05/25 11:44:52;;;;;;;4.67;0.97;;;24.60;79.30;;;;;;5080591;28;20623;-90
2022/05/25 11:47:31;;;;;;;1.17;1.00;;;24.70;73.70;;;;;;5086185;28;20735;-90
2022/05/25 11:50:16;;;;;;;2.03;1.33;;;24.50;70.00;;;;;;5086501;28;20743;-91
2022/05/25 11:53:07;;;;;;;1.20;0.87;;;24.30;75.10;;;;;;5086598;28;20612;-90
2022/05/25 11:55:48;;;;;;;2.40;1.00;;;24.40;70.00;;;;;;5087693;28;20624;-90
2022/05/25 11:58:27;;;;;;;3.97;1.20;;;24.30;72.60;;;;;;5080407;28;20625;-90
2022/05/25 12:01:01;;;;;;;5.43;1.10;;;24.20;69.80;;;;;;5084126;28;20650;-89
2022/05/25 12:04:06;;;;;;;1.00;0.90;;;24.20;72.10;;;;;;5084520;28;20663;-90
2022/05/25 12:07:05;;;;;;;3.17;1.13;;;24.20;77.30;;;;;;5086346;28;20663;-90
2022/05/25 12:09:58;;;;;;;1.47;0.70;;;24.30;71.50;;;;;;5085730;28;20696;-89
2022/05/25 12:12:34;;;;;;;1.33;0.80;;;24.10;68.80;;;;;;5084725;28;20889;-90
2022/05/25 12:15:10;;;;;;;5.00;2.40;;;24.30;76.60;;;;;;5089792;28;20687;-90
2022/05/25 12:17:54;;;;;;;1.93;0.87;;;24.60;76.80;;;;;;5089059;28;20624;-90
2022/05/25 12:20:28;;;;;;;0.60;0.50;;;25.00;81.20;;;;;;5092509;28;20970;-90
2022/05/25 12:22:59;;;;;;;0.80;0.80;;;25.60;82.00;;;;;;5092147;28;20611;-90
2022/05/25 12:25:32;;;;;;;1.70;0.90;;;26.00;75.90;;;;;;5097455;28;20619;-90
2022/05/25 12:28:03;;;;;;;0.70;0.60;;;26.30;74.70;;;;;;5098578;28;20665;-90
2022/05/25 12:30:34;;;;;;;0.73;0.70;;;26.70;79.60;;;;;;5102995;28;21386;-91
2022/05/25 12:33:03;;;;;;;1.00;0.90;;;26.80;75.20;;;;;;5099315;28;20642;-91
2022/05/25 12:35:33;;;;;;;1.33;0.63;;;27.00;71.10;;;;;;5089891;28;20624;-90
2022/05/25 12:38:02;;;;;;;1.47;0.70;;;27.00;70.90;;;;;;5080299;28;20613;-90
2022/05/25 12:40:44;;;;;;;1.17;0.53;;;27.50;72.60;;;;;;5085453;28;20652;-91
2022/05/25 12:43:53;;;;;;;2.43;0.80;;;27.50;74.40;;;;;;5082830;28;20635;-90
2022/05/25 12:49:44;;;;;;;1.37;1.00;;;27.40;71.40;;;;;;5084368;28;21022;-90
2022/05/25 12:52:39;;;;;;;2.83;1.10;;;27.00;70.00;;;;;;5087119;28;21181;-90
2022/05/25 12:55:17;;;;;;;2.77;1.13;;;26.70;70.80;;;;;;5083093;28;20628;-90
2022/05/25 12:57:48;;;;;;;1.27;0.83;;;26.50;73.40;;;;;;5085794;28;20971;-89
2022/05/25 13:00:21;;;;;;;4.47;0.80;;;26.30;73.60;;;;;;5086152;28;20776;-90
2022/05/25 13:02:48;;;;;;;3.27;0.90;;;26.50;67.70;;;;;;5083843;28;20632;-90
2022/05/25 13:05:48;;;;;;;1.90;0.77;;;26.70;70.50;;;;;;5083469;28;20632;-90
2022/05/25 13:08:59;;;;;;;1.47;0.60;;;26.90;68.70;;;;;;5084100;28;21221;-90
2022/05/25 13:11:31;;;;;;;0.97;0.60;;;26.50;64.40;;;;;;5080593;28;20651;-89
2022/05/25 13:13:59;;;;;;;1.00;0.57;;;27.00;71.50;;;;;;5079730;28;20622;-90
2022/05/25 13:16:52;;;;;;;1.00;0.70;;;27.60;70.10;;;;;;5084997;28;21187;-90
2022/05/25 13:19:39;;;;;;;0.80;0.67;;;28.10;67.50;;;;;;5082293;28;20630;-90
2022/05/25 13:22:20;;;;;;;1.10;0.60;;;28.00;66.70;;;;;;5077790;28;20661;-90
2022/05/25 13:25:05;;;;;;;1.17;0.60;;;28.40;64.80;;;;;;5086181;28;20593;-90
2022/05/25 13:27:56;;;;;;;1.37;1.13;;;29.10;62.80;;;;;;5079595;28;20759;-89
2022/05/25 13:30:29;;;;;;;1.03;0.77;;;29.10;58.40;;;;;;5081452;28;20742;-90
2022/05/25 13:33:00;;;;;;;1.80;0.93;;;29.10;61.10;;;;;;5085125;28;20662;-90
2022/05/25 13:35:38;;;;;;;1.10;0.50;;;29.40;61.30;;;;;;5084513;28;20643;-90
2022/05/25 13:38:13;;;;;;;1.83;0.73;;;29.40;63.30;;;;;;5077007;28;21066;-90
2022/05/25 13:40:44;;;;;;;1.07;0.70;;;29.30;58.10;;;;;;5082453;28;20658;-90
2022/05/25 13:43:13;;;;;;;1.00;0.70;;;29.70;62.90;;;;;;5085519;28;20608;-90
2022/05/25 13:45:43;;;;;;;1.03;0.70;;;29.40;60.80;;;;;;5081527;28;20621;-91
2022/05/25 13:48:14;;;;;;;1.03;0.67;;;29.00;63.90;;;;;;5084586;28;20641;-91
2022/05/25 13:50:43;;;;;;;1.80;0.80;;;28.70;64.30;;;;;;5085625;28;20672;-90